createdAt,value
2019-01-29T00:01:32.853Z,1.87
2019-01-29T00:04:00.990Z,1.87
2019-01-29T00:06:29.183Z,1.81
2019-01-29T00:08:57.855Z,1.89
2019-01-29T00:11:26.020Z,2.02
2019-01-29T00:13:53.973Z,1.97
2019-01-29T00:16:22.542Z,1.97
2019-01-29T00:18:51.106Z,1.92
2019-01-29T00:21:19.138Z,1.88
2019-01-29T00:23:47.745Z,1.88
2019-01-29T00:26:16.169Z,1.93
2019-01-29T00:28:44.450Z,1.93
2019-01-29T00:31:12.827Z,1.89
2019-01-29T00:33:41.063Z,1.93
2019-01-29T00:36:09.366Z,1.90
2019-01-29T00:38:38.088Z,1.91
2019-01-29T00:41:06.198Z,2.01
2019-01-29T00:43:34.736Z,1.92
2019-01-29T00:46:03.246Z,1.90
2019-01-29T00:48:31.998Z,1.80
2019-01-29T00:51:00.147Z,1.84
2019-01-29T00:53:28.456Z,1.89
2019-01-29T00:55:56.493Z,1.85
2019-01-29T00:58:25.067Z,1.79
2019-01-29T01:00:53.259Z,1.78
2019-01-29T01:03:22.578Z,1.83
2019-01-29T01:05:50.838Z,1.79
2019-01-29T01:08:19.405Z,1.79
2019-01-29T01:10:47.543Z,1.74
2019-01-29T01:13:15.652Z,1.70
2019-01-29T01:15:43.815Z,1.80
2019-01-29T01:18:12.134Z,1.86
2019-01-29T01:20:40.534Z,1.87
2019-01-29T01:23:10.011Z,1.87
2019-01-29T01:25:38.112Z,1.86
2019-01-29T01:28:06.506Z,1.77
2019-01-29T01:30:36.581Z,1.79
2019-01-29T01:33:05.574Z,1.83
2019-01-29T01:35:34.877Z,1.79
2019-01-29T01:38:03.095Z,1.90
2019-01-29T01:40:31.188Z,1.95
2019-01-29T01:42:59.191Z,2.03
2019-01-29T01:45:28.260Z,2.11
2019-01-29T01:47:56.361Z,2.10
2019-01-29T01:50:24.651Z,2.08
2019-01-29T01:52:59.149Z,2.21
2019-01-29T01:55:22.651Z,2.21
2019-01-29T01:57:50.794Z,2.34
2019-01-29T02:00:20.262Z,2.29
2019-01-29T02:02:48.246Z,2.15
2019-01-29T02:05:16.356Z,2.30
2019-01-29T02:07:44.365Z,2.30
2019-01-29T02:10:25.433Z,2.25
2019-01-29T02:12:53.402Z,2.27
2019-01-29T02:15:22.525Z,2.25
2019-01-29T02:17:50.588Z,2.43
2019-01-29T02:20:18.605Z,2.36
2019-01-29T02:22:46.689Z,2.31
2019-01-29T02:25:14.848Z,2.31
2019-01-29T02:27:42.814Z,2.16
2019-01-29T02:30:14.940Z,2.27
2019-01-29T02:32:43.041Z,2.31
2019-01-29T02:35:11.185Z,2.23
2019-01-29T02:37:39.424Z,2.30
2019-01-29T02:40:16.199Z,2.26
2019-01-29T02:42:44.825Z,2.21
2019-01-29T02:45:13.306Z,2.29
2019-01-29T02:47:43.343Z,2.28
2019-01-29T02:50:11.727Z,2.17
2019-01-29T02:52:39.823Z,2.12
2019-01-29T02:55:09.010Z,2.07
2019-01-29T02:57:37.083Z,2.12
2019-01-29T03:00:14.091Z,2.18
2019-01-29T03:02:42.401Z,2.13
2019-01-29T03:05:10.754Z,2.10
2019-01-29T03:07:38.733Z,2.17
2019-01-29T03:10:09.455Z,2.08
2019-01-29T03:12:37.489Z,1.93
2019-01-29T03:15:07.221Z,1.98
2019-01-29T03:17:35.247Z,1.99
2019-01-29T03:20:05.359Z,1.94
2019-01-29T03:22:33.354Z,1.93
2019-01-29T03:25:01.401Z,1.82
2019-01-29T03:27:29.385Z,1.89
2019-01-29T03:29:57.426Z,1.82
2019-01-29T03:32:25.448Z,1.81
2019-01-29T03:34:53.525Z,1.76
2019-01-29T03:37:21.674Z,1.80
2019-01-29T03:39:49.918Z,1.66
2019-01-29T03:42:18.164Z,1.64
2019-01-29T03:44:46.252Z,1.68
2019-01-29T03:47:14.308Z,1.67
2019-01-29T03:49:42.368Z,1.61
2019-01-29T03:52:10.379Z,1.66
2019-01-29T03:54:38.403Z,1.70
2019-01-29T03:57:06.382Z,1.53
2019-01-29T03:59:34.390Z,1.59
2019-01-29T04:02:02.697Z,1.64
2019-01-29T04:04:30.739Z,1.58
2019-01-29T04:06:58.738Z,1.54
2019-01-29T04:09:26.779Z,1.54
2019-01-29T04:11:54.777Z,1.39
2019-01-29T04:14:22.786Z,1.42
2019-01-29T04:16:50.787Z,1.31
2019-01-29T04:19:19.358Z,1.25
2019-01-29T04:21:47.488Z,1.42
2019-01-29T04:24:15.683Z,1.39
2019-01-29T04:26:43.799Z,1.29
2019-01-29T04:29:11.778Z,1.32
2019-01-29T04:31:39.786Z,1.24
2019-01-29T04:34:07.856Z,1.27
2019-01-29T04:36:36.014Z,1.28
2019-01-29T04:39:07.159Z,1.38
2019-01-29T04:41:35.222Z,1.36
2019-01-29T04:44:03.361Z,1.32
2019-01-29T04:46:31.550Z,1.43
2019-01-29T04:48:59.514Z,1.42
2019-01-29T04:51:27.518Z,1.49
2019-01-29T04:53:57.615Z,1.52
2019-01-29T04:56:25.729Z,1.46
2019-01-29T04:58:53.830Z,1.46
2019-01-29T05:01:22.020Z,1.47
2019-01-29T05:03:50.186Z,1.50
2019-01-29T05:06:18.245Z,1.44
2019-01-29T05:08:48.856Z,1.48
2019-01-29T05:11:16.913Z,1.71
2019-01-29T05:13:44.879Z,1.70
2019-01-29T05:16:12.883Z,1.69
2019-01-29T05:18:40.835Z,1.78
2019-01-29T05:21:08.923Z,1.83
2019-01-29T05:23:36.967Z,1.81
2019-01-29T05:26:04.962Z,1.90
2019-01-29T05:28:32.949Z,1.93
2019-01-29T05:31:00.981Z,1.91
2019-01-29T05:33:29.297Z,1.98
2019-01-29T05:35:57.394Z,2.04
2019-01-29T05:38:25.434Z,1.83
2019-01-29T05:40:53.558Z,2.05
2019-01-29T05:43:21.678Z,1.98
2019-01-29T05:45:51.088Z,1.97
2019-01-29T05:48:19.163Z,1.97
2019-01-29T05:50:47.309Z,2.08
2019-01-29T05:53:15.823Z,2.10
2019-01-29T05:55:44.151Z,2.06
2019-01-29T05:58:13.514Z,2.19
2019-01-29T06:00:41.817Z,2.16
2019-01-29T06:03:10.359Z,2.15
2019-01-29T06:05:38.591Z,2.17
2019-01-29T06:08:06.879Z,2.25
2019-01-29T06:10:34.912Z,2.25
2019-01-29T06:13:03.002Z,2.36
2019-01-29T06:15:31.223Z,2.36
2019-01-29T06:17:59.235Z,2.42
2019-01-29T06:20:27.897Z,2.32
2019-01-29T06:23:07.228Z,2.31
2019-01-29T06:25:39.265Z,2.33
2019-01-29T06:28:07.256Z,2.34
2019-01-29T06:30:35.549Z,2.36
2019-01-29T06:33:03.691Z,2.35
2019-01-29T06:35:32.050Z,2.40
2019-01-29T06:38:00.245Z,2.24
2019-01-29T06:40:28.368Z,2.27
2019-01-29T06:42:57.058Z,2.28
2019-01-29T06:45:26.155Z,2.33
2019-01-29T06:47:55.245Z,2.41
2019-01-29T06:50:24.726Z,2.38
2019-01-29T06:53:00.579Z,2.39
2019-01-29T06:55:28.825Z,2.31
2019-01-29T06:57:57.309Z,2.25
2019-01-29T07:00:27.806Z,2.23
2019-01-29T07:02:56.401Z,2.23
2019-01-29T07:05:24.358Z,2.09
2019-01-29T07:07:52.409Z,2.15
2019-01-29T07:10:20.685Z,2.31
2019-01-29T07:12:48.679Z,2.55
2019-01-29T07:15:39.093Z,2.34
2019-01-29T07:18:16.961Z,2.44
2019-01-29T07:20:45.065Z,2.53
2019-01-29T07:23:13.055Z,2.57
2019-01-29T07:25:41.056Z,2.62
2019-01-29T07:28:09.107Z,2.72
2019-01-29T07:30:37.193Z,2.72
2019-01-29T07:33:05.239Z,2.73
2019-01-29T07:35:33.324Z,2.54
2019-01-29T07:38:01.450Z,2.52
2019-01-29T07:40:29.464Z,2.70
2019-01-29T07:42:58.270Z,2.72
2019-01-29T07:45:26.680Z,2.68
2019-01-29T07:47:54.661Z,2.58
2019-01-29T07:50:22.689Z,2.71
2019-01-29T07:52:50.689Z,2.74
2019-01-29T07:55:18.867Z,2.71
2019-01-29T07:57:46.880Z,2.66
2019-01-29T08:00:16.192Z,2.92
2019-01-29T08:02:44.386Z,2.89
2019-01-29T08:05:12.400Z,2.82
2019-01-29T08:07:40.586Z,2.94
2019-01-29T08:10:13.929Z,3.06
2019-01-29T08:12:44.661Z,3.13
2019-01-29T08:15:12.753Z,3.18
2019-01-29T08:17:41.718Z,3.23
2019-01-29T08:20:10.262Z,3.35
2019-01-29T08:22:38.328Z,3.51
2019-01-29T08:25:06.521Z,3.46
2019-01-29T08:27:34.575Z,3.66
2019-01-29T08:30:03.742Z,3.58
2019-01-29T08:32:35.178Z,3.54
2019-01-29T08:35:03.508Z,3.37
2019-01-29T08:37:31.603Z,3.31
2019-01-29T08:40:03.241Z,3.14
2019-01-29T08:42:48.181Z,3.15
2019-01-29T08:45:18.489Z,3.29
2019-01-29T08:47:46.510Z,3.25
2019-01-29T08:50:18.534Z,3.31
2019-01-29T08:52:46.510Z,3.21
2019-01-29T08:55:14.912Z,3.19
2019-01-29T08:57:42.943Z,3.16
2019-01-29T09:00:13.483Z,3.19
2019-01-29T09:02:42.111Z,3.26
2019-01-29T09:05:10.149Z,3.36
2019-01-29T09:07:38.086Z,3.27
2019-01-29T09:10:08.304Z,3.39
2019-01-29T09:12:36.322Z,3.61
2019-01-29T09:15:08.557Z,3.78
2019-01-29T09:17:36.526Z,3.75
2019-01-29T09:20:05.205Z,3.53
2019-01-29T09:22:33.208Z,3.48
2019-01-29T09:25:01.447Z,3.63
2019-01-29T09:27:29.510Z,3.76
2019-01-29T09:29:57.424Z,3.63
2019-01-29T09:32:25.521Z,3.63
2019-01-29T09:34:53.652Z,3.66
2019-01-29T09:37:21.836Z,3.84
2019-01-29T09:39:49.906Z,4.11
2019-01-29T09:42:17.881Z,4.29
2019-01-29T09:44:46.028Z,4.37
2019-01-29T09:47:14.619Z,4.30
2019-01-29T09:49:42.816Z,4.23
2019-01-29T09:52:10.988Z,4.22
2019-01-29T09:54:39.525Z,4.12
2019-01-29T09:57:07.822Z,4.44
2019-01-29T09:59:35.878Z,4.14
2019-01-29T10:02:03.839Z,4.70
2019-01-29T10:04:33.166Z,4.53
2019-01-29T10:07:01.588Z,4.68
2019-01-29T10:09:29.581Z,4.58
2019-01-29T10:11:57.601Z,4.52
2019-01-29T10:14:25.623Z,4.58
2019-01-29T10:16:53.880Z,4.83
2019-01-29T10:19:21.953Z,4.55
2019-01-29T10:21:50.199Z,4.54
2019-01-29T10:24:18.169Z,4.44
2019-01-29T10:26:46.270Z,4.09
2019-01-29T10:29:14.432Z,4.38
2019-01-29T10:31:42.866Z,4.52
2019-01-29T10:34:11.047Z,4.58
2019-01-29T10:36:39.163Z,4.54
2019-01-29T10:39:10.015Z,4.54
2019-01-29T10:41:38.528Z,4.86
2019-01-29T10:44:06.681Z,5.01
2019-01-29T10:46:34.784Z,5.11
2019-01-29T10:49:02.764Z,4.96
2019-01-29T10:51:30.817Z,5.10
2019-01-29T10:53:59.106Z,5.29
2019-01-29T10:56:27.486Z,5.15
2019-01-29T10:58:55.463Z,5.39
2019-01-29T11:01:23.443Z,5.56
2019-01-29T11:03:51.758Z,5.60
2019-01-29T11:06:19.818Z,5.78
2019-01-29T11:08:47.880Z,5.83
2019-01-29T11:11:16.119Z,5.91
2019-01-29T11:13:44.168Z,5.81
2019-01-29T11:16:12.449Z,5.87
2019-01-29T11:18:40.914Z,6.15
2019-01-29T11:21:08.954Z,6.14
2019-01-29T11:23:36.984Z,5.87
2019-01-29T11:26:05.296Z,6.11
2019-01-29T11:28:33.284Z,6.45
2019-01-29T11:31:01.437Z,6.23
2019-01-29T11:33:29.566Z,6.29
2019-01-29T11:35:57.519Z,6.19
2019-01-29T11:38:25.605Z,6.08
2019-01-29T11:40:53.894Z,6.34
2019-01-29T11:43:22.179Z,6.20
2019-01-29T11:45:52.700Z,6.32
2019-01-29T11:48:21.102Z,6.54
2019-01-29T11:50:49.152Z,6.62
2019-01-29T11:53:17.233Z,7.00
2019-01-29T11:55:45.954Z,6.87
2019-01-29T11:58:14.219Z,6.13
2019-01-29T12:01:00.571Z,6.05
2019-01-29T12:03:32.322Z,6.29
2019-01-29T12:06:01.373Z,5.95
2019-01-29T12:08:33.294Z,6.30
2019-01-29T12:11:01.395Z,6.27
2019-01-29T12:13:29.540Z,5.92
2019-01-29T12:15:58.054Z,5.82
2019-01-29T12:18:26.248Z,5.63
2019-01-29T12:20:54.543Z,5.66
2019-01-29T12:23:22.768Z,5.86
2019-01-29T12:25:51.244Z,5.54
2019-01-29T12:28:19.462Z,5.74
2019-01-29T12:30:47.949Z,5.90
2019-01-29T12:33:16.352Z,5.81
2019-01-29T12:35:44.643Z,6.34
2019-01-29T12:38:12.912Z,6.19
2019-01-29T12:40:41.018Z,6.30
2019-01-29T12:43:09.091Z,6.30
2019-01-29T12:45:37.265Z,6.47
2019-01-29T12:48:05.371Z,6.86
2019-01-29T12:50:33.381Z,6.81
2019-01-29T12:53:06.702Z,7.03
2019-01-29T12:55:35.398Z,7.31
2019-01-29T12:58:05.033Z,7.23
2019-01-29T13:00:37.000Z,7.56
2019-01-29T13:03:05.749Z,7.33
2019-01-29T13:05:35.144Z,7.84
2019-01-29T13:08:03.810Z,7.77
2019-01-29T13:10:34.602Z,7.80
2019-01-29T13:13:07.869Z,7.33
2019-01-29T13:15:38.649Z,7.28
2019-01-29T13:18:08.846Z,7.65
2019-01-29T13:20:36.897Z,7.43
2019-01-29T13:23:05.219Z,7.25
2019-01-29T13:26:01.766Z,7.48
2019-01-29T13:28:45.247Z,7.98
2019-01-29T13:31:14.003Z,8.65
2019-01-29T13:33:50.749Z,9.16
2019-01-29T13:36:20.126Z,10.57
2019-01-29T13:38:48.474Z,10.63
2019-01-29T13:41:16.717Z,12.45
2019-01-29T13:43:45.037Z,12.02
2019-01-29T13:46:13.642Z,12.34
2019-01-29T13:48:41.917Z,13.38
2019-01-29T13:51:10.184Z,13.31
2019-01-29T13:53:38.696Z,13.29
2019-01-29T13:56:07.215Z,13.59
2019-01-29T13:58:35.378Z,13.31
2019-01-29T14:01:04.230Z,13.44
2019-01-29T14:03:32.525Z,13.73
2019-01-29T14:06:03.639Z,13.38
2019-01-29T14:08:32.380Z,13.02
2019-01-29T14:11:00.948Z,11.59
2019-01-29T14:14:16.176Z,12.54
2019-01-29T14:16:44.762Z,14.43
2019-01-29T14:19:13.164Z,14.25
2019-01-29T14:21:41.574Z,15.73
2019-01-29T14:24:10.157Z,14.65
2019-01-29T14:26:47.376Z,12.84
2019-01-29T14:29:09.310Z,12.75
2019-01-29T14:31:37.778Z,13.97
2019-01-29T14:34:06.568Z,14.24
2019-01-29T14:36:35.108Z,15.07
2019-01-29T14:39:38.608Z,15.32
2019-01-29T14:42:07.339Z,15.18
2019-01-29T14:44:40.606Z,14.25
2019-01-29T14:47:08.950Z,15.26
2019-01-29T14:49:38.350Z,13.54
2019-01-29T14:52:28.686Z,12.75
2019-01-29T14:54:57.568Z,12.36
2019-01-29T14:57:25.834Z,12.78
2019-01-29T14:59:54.177Z,12.27
2019-01-29T15:02:22.569Z,11.65
2019-01-29T15:04:50.804Z,11.32
2019-01-29T15:07:18.894Z,12.08
2019-01-29T15:09:46.998Z,11.02
2019-01-29T15:12:18.439Z,10.88
2019-01-29T15:14:46.715Z,11.26
2019-01-29T15:17:43.856Z,10.40
2019-01-29T15:20:14.600Z,10.78
2019-01-29T15:22:43.566Z,9.86
2019-01-29T15:25:12.050Z,9.59
2019-01-29T15:27:41.782Z,8.99
2019-01-29T15:30:19.000Z,8.23
2019-01-29T15:32:49.995Z,7.44
2019-01-29T15:35:18.173Z,7.01
2019-01-29T15:37:46.496Z,6.77
2019-01-29T15:40:18.631Z,6.68
2019-01-29T15:42:46.667Z,6.83
2019-01-29T15:45:17.645Z,6.34
2019-01-29T15:47:45.678Z,6.17
2019-01-29T15:50:18.259Z,6.52
2019-01-29T15:52:48.571Z,6.46
2019-01-29T15:55:17.001Z,6.34
2019-01-29T15:57:45.174Z,6.06
2019-01-29T16:00:20.413Z,5.63
2019-01-29T16:02:48.482Z,5.62
2019-01-29T16:05:19.727Z,5.59
2019-01-29T16:07:47.808Z,5.28
2019-01-29T16:10:20.721Z,5.19
2019-01-29T16:12:48.936Z,4.94
2019-01-29T16:15:18.448Z,4.79
2019-01-29T16:17:46.680Z,4.53
2019-01-29T16:20:17.109Z,4.53
2019-01-29T16:22:45.363Z,4.41
2019-01-29T16:25:14.459Z,4.35
2019-01-29T16:27:42.845Z,4.30
2019-01-29T16:30:18.141Z,4.10
2019-01-29T16:32:46.227Z,3.88
2019-01-29T16:35:17.163Z,3.75
2019-01-29T16:37:45.361Z,3.60
2019-01-29T16:40:14.594Z,3.51
2019-01-29T16:42:42.550Z,3.65
2019-01-29T16:45:14.019Z,3.53
2019-01-29T16:47:42.187Z,3.37
2019-01-29T16:50:11.156Z,3.23
2019-01-29T16:52:39.146Z,3.14
2019-01-29T16:55:10.875Z,3.10
2019-01-29T16:57:38.855Z,3.01
2019-01-29T17:00:20.710Z,2.91
2019-01-29T17:02:48.750Z,2.98
2019-01-29T17:05:16.791Z,2.99
2019-01-29T17:07:44.781Z,2.85
2019-01-29T17:10:13.989Z,2.88
2019-01-29T17:12:41.988Z,2.68
2019-01-29T17:15:16.538Z,2.70
2019-01-29T17:17:44.904Z,2.67
2019-01-29T17:20:35.196Z,2.47
2019-01-29T17:23:03.730Z,2.41
2019-01-29T17:25:34.438Z,2.37
2019-01-29T17:28:02.594Z,2.44
2019-01-29T17:30:36.095Z,2.38
2019-01-29T17:33:05.059Z,2.27
2019-01-29T17:35:36.559Z,2.29
2019-01-29T17:38:04.826Z,2.22
2019-01-29T17:40:32.992Z,2.15
2019-01-29T17:43:00.970Z,2.12
2019-01-29T17:45:32.499Z,2.02
2019-01-29T17:48:00.520Z,2.14
2019-01-29T17:50:31.266Z,2.11
2019-01-29T17:52:59.449Z,2.07
2019-01-29T17:55:29.099Z,2.04
2019-01-29T17:57:57.164Z,2.03
2019-01-29T18:00:29.325Z,2.04
2019-01-29T18:02:57.588Z,1.93
2019-01-29T18:05:25.662Z,1.96
2019-01-29T18:07:54.034Z,1.99
2019-01-29T18:10:22.048Z,1.92
2019-01-29T18:12:50.079Z,1.95
2019-01-29T18:15:21.041Z,1.84
2019-01-29T18:17:49.565Z,1.77
2019-01-29T18:20:17.895Z,1.81
2019-01-29T18:22:45.854Z,1.69
2019-01-29T18:25:15.804Z,1.69
2019-01-29T18:27:43.818Z,1.55
2019-01-29T18:30:18.406Z,1.45
2019-01-29T18:32:46.449Z,1.59
2019-01-29T18:35:14.491Z,1.54
2019-01-29T18:37:42.477Z,1.46
2019-01-29T18:40:14.415Z,1.45
2019-01-29T18:42:42.684Z,1.41
2019-01-29T18:45:11.253Z,1.26
2019-01-29T18:47:39.349Z,1.41
2019-01-29T18:50:09.582Z,1.38
2019-01-29T18:52:38.949Z,1.41
2019-01-29T18:55:07.748Z,1.49
2019-01-29T18:57:36.131Z,1.55
2019-01-29T19:00:07.910Z,1.55
2019-01-29T19:02:37.038Z,1.38
2019-01-29T19:05:06.689Z,1.37
2019-01-29T19:07:35.174Z,1.27
2019-01-29T19:10:03.340Z,1.14
2019-01-29T19:12:31.560Z,1.11
2019-01-29T19:15:00.046Z,1.21
2019-01-29T19:17:28.460Z,1.24
2019-01-29T19:19:56.467Z,1.22
2019-01-29T19:22:24.490Z,1.17
2019-01-29T19:24:52.628Z,1.19
2019-01-29T19:27:20.901Z,1.22
2019-01-29T19:29:49.171Z,1.28
2019-01-29T19:32:17.770Z,1.22
2019-01-29T19:34:46.608Z,1.12
2019-01-29T19:37:14.569Z,1.14
2019-01-29T19:39:48.266Z,1.09
2019-01-29T19:42:27.125Z,1.01
2019-01-29T19:44:47.008Z,0.98
2019-01-29T19:47:17.306Z,1.06
2019-01-29T19:49:45.546Z,1.00
2019-01-29T19:52:13.980Z,0.94
2019-01-29T19:54:42.005Z,0.99
2019-01-29T19:57:09.977Z,1.03
2019-01-29T19:59:38.071Z,0.96
2019-01-29T20:02:06.839Z,0.94
2019-01-29T20:04:35.187Z,0.88
2019-01-29T20:07:04.529Z,0.83
2019-01-29T20:09:32.754Z,0.74
2019-01-29T20:12:00.831Z,0.77
2019-01-29T20:14:28.893Z,0.85
2019-01-29T20:16:56.858Z,1.01
2019-01-29T20:19:24.859Z,1.02
2019-01-29T20:21:54.165Z,0.98
2019-01-29T20:24:23.172Z,0.89
2019-01-29T20:26:51.440Z,0.81
2019-01-29T20:29:20.586Z,0.75
2019-01-29T20:31:48.687Z,0.76
2019-01-29T20:34:17.346Z,0.76
2019-01-29T20:36:46.248Z,0.77
2019-01-29T20:39:14.642Z,0.80
2019-01-29T20:41:43.010Z,0.69
2019-01-29T20:44:11.002Z,0.70
2019-01-29T20:46:39.087Z,0.67
2019-01-29T20:49:07.155Z,0.74
2019-01-29T20:51:35.296Z,0.69
2019-01-29T20:54:03.299Z,0.75
2019-01-29T20:56:31.699Z,0.73
2019-01-29T20:58:59.796Z,0.69
2019-01-29T21:01:28.144Z,0.55
2019-01-29T21:03:56.283Z,0.53
2019-01-29T21:06:24.227Z,0.51
2019-01-29T21:08:52.560Z,0.44
2019-01-29T21:11:20.705Z,0.42
2019-01-29T21:13:49.765Z,0.48
2019-01-29T21:16:17.851Z,0.49
2019-01-29T21:18:45.903Z,0.45
2019-01-29T21:21:13.953Z,0.55
2019-01-29T21:23:42.947Z,0.59
2019-01-29T21:26:11.246Z,0.56
2019-01-29T21:28:39.290Z,0.48
2019-01-29T21:31:07.361Z,0.56
2019-01-29T21:33:35.337Z,0.48
2019-01-29T21:36:03.344Z,0.41
2019-01-29T21:38:32.242Z,0.41
2019-01-29T21:41:00.427Z,0.44
2019-01-29T21:43:28.778Z,0.35
2019-01-29T21:45:56.966Z,0.37
2019-01-29T21:48:25.249Z,0.37
2019-01-29T21:50:53.403Z,0.29
2019-01-29T21:53:21.454Z,0.30
2019-01-29T21:55:49.442Z,0.27
2019-01-29T21:58:17.561Z,0.17
2019-01-29T22:00:45.888Z,0.17
2019-01-29T22:03:15.064Z,0.16
2019-01-29T22:05:43.196Z,0.21
2019-01-29T22:08:11.727Z,0.19
2019-01-29T22:10:39.959Z,0.12
2019-01-29T22:13:10.083Z,0.18
2019-01-29T22:15:38.371Z,0.14
2019-01-29T22:18:08.747Z,0.10
2019-01-29T22:20:36.746Z,0.19
2019-01-29T22:23:05.551Z,0.46
2019-01-29T22:25:37.422Z,0.46
2019-01-29T22:28:12.403Z,0.40
2019-01-29T22:30:42.269Z,0.31
2019-01-29T22:33:16.652Z,0.19
2019-01-29T22:35:44.825Z,0.26
2019-01-29T22:38:12.859Z,0.36
2019-01-29T22:40:41.307Z,0.33
2019-01-29T22:43:09.534Z,0.41
2019-01-29T22:45:37.566Z,0.37
2019-01-29T22:48:07.375Z,0.31
2019-01-29T22:50:45.927Z,0.19
2019-01-29T22:53:26.213Z,0.10
2019-01-29T22:55:54.450Z,0.00
2019-01-29T22:58:51.973Z,-0.05
2019-01-29T23:01:34.175Z,-0.08
2019-01-29T23:04:33.201Z,-0.04
2019-01-29T23:07:21.110Z,-0.16
2019-01-29T23:09:49.540Z,-0.21
2019-01-29T23:12:17.688Z,-0.08
2019-01-29T23:14:45.708Z,0.01
2019-01-29T23:17:13.727Z,-0.15
2019-01-29T23:19:41.732Z,-0.24
2019-01-29T23:22:09.799Z,-0.24
2019-01-29T23:24:37.769Z,-0.21
2019-01-29T23:27:05.997Z,-0.18
2019-01-29T23:29:43.332Z,-0.14
2019-01-29T23:32:05.413Z,-0.05
2019-01-29T23:34:33.487Z,0.03
2019-01-29T23:37:01.474Z,0.21
2019-01-29T23:39:29.458Z,0.24
2019-01-29T23:41:57.495Z,0.53
2019-01-29T23:44:26.425Z,0.09
2019-01-29T23:46:54.416Z,0.13
2019-01-29T23:49:22.644Z,0.19
2019-01-29T23:51:50.714Z,-0.03
2019-01-29T23:54:18.723Z,-0.06
2019-01-29T23:56:47.082Z,-0.12
2019-01-29T23:59:15.039Z,-0.07
